Time;durP1;ratioP1;P1;durP2;ratioP2;P2;SDS_P1;SDS_P2;PMS_P1;PMS_P2;Temp;Humidity;BMP_temperature;BMP_pressure;BME280_temperature;BME280_humidity;BME280_pressure;Samples;Min_cycle;Max_cycle;Signal;HPM_P1;HPM_P2
2022/05/14 00:01:40;;;;;;;10.13;9.27;;;;;;;12.29;70.97;100665.91;5013842;28;20229;-73
2022/05/14 00:04:10;;;;;;;10.10;9.30;;;;;;;12.27;71.83;100638.91;5014153;28;20206;-74
2022/05/14 00:06:38;;;;;;;10.57;9.50;;;;;;;12.28;71.54;100644.06;5013648;28;20297;-74
2022/05/14 00:09:05;;;;;;;10.07;9.27;;;;;;;12.33;71.97;100638.75;5013662;28;20209;-73
2022/05/14 00:14:16;;;;;;;10.27;9.47;;;;;;;12.40;71.33;100650.78;5013807;28;20593;-74
2022/05/14 00:16:43;;;;;;;9.00;8.30;;;;;;;12.38;71.07;100668.28;5013688;28;20213;-74
2022/05/14 00:19:10;;;;;;;9.43;8.50;;;;;;;12.44;71.15;100670.75;5013594;28;20671;-73
2022/05/14 00:21:38;;;;;;;10.80;7.17;;;;;;;12.43;70.42;100676.91;5013334;28;20683;-74
2022/05/14 00:24:06;;;;;;;7.30;6.20;;;;;;;12.56;69.91;100685.34;5013739;28;20255;-74
2022/05/14 00:26:32;;;;;;;7.27;6.73;;;;;;;12.63;70.79;100673.84;5013336;28;20257;-73
2022/05/14 00:29:00;;;;;;;9.17;8.37;;;;;;;12.54;71.08;100652.25;5013612;28;20256;-73
2022/05/14 00:31:26;;;;;;;8.77;8.00;;;;;;;12.56;72.23;100643.44;5013520;28;20211;-73
2022/05/14 00:33:53;;;;;;;8.13;7.43;;;;;;;12.56;72.14;100637.34;5013229;28;20617;-74
2022/05/14 00:36:19;;;;;;;6.50;5.93;;;;;;;12.54;70.14;100650.47;5013323;28;20209;-74
2022/05/14 00:38:47;;;;;;;8.13;7.43;;;;;;;12.70;70.50;100669.28;5013917;28;20862;-73
2022/05/14 00:41:13;;;;;;;8.97;8.20;;;;;;;12.75;71.20;100638.63;5042334;22;20233;-75
2022/05/14 00:43:52;;;;;;;8.60;8.00;;;;;;;12.70;70.38;100672.81;5045421;28;20299;-75
2022/05/14 00:46:21;;;;;;;9.77;9.07;;;;;;;12.54;70.29;100674.03;5052601;28;20201;-75
2022/05/14 00:48:49;;;;;;;9.17;8.57;;;;;;;12.70;70.79;100678.03;5052943;28;20577;-75
2022/05/14 00:51:19;;;;;;;9.87;9.13;;;;;;;12.81;70.44;100676.91;5052747;28;20608;-74
2022/05/14 00:53:51;;;;;;;9.07;8.47;;;;;;;12.88;70.13;100686.31;5052146;28;20750;-74
2022/05/14 00:56:24;;;;;;;9.33;8.60;;;;;;;12.88;70.46;100684.59;5052964;28;20220;-75
2022/05/14 00:58:55;;;;;;;8.60;7.90;;;;;;;12.97;71.31;100672.16;5052709;28;20197;-74
2022/05/14 01:01:22;;;;;;;8.60;7.90;;;;;;;13.02;71.40;100655.41;5052413;28;20245;-74
2022/05/14 01:03:48;;;;;;;7.97;7.47;;;;;;;13.03;71.28;100656.28;5052527;28;20674;-74
2022/05/14 01:06:19;;;;;;;7.87;7.27;;;;;;;13.06;71.34;100654.44;5052657;28;20217;-75
2022/05/14 01:08:48;;;;;;;7.17;6.57;;;;;;;13.05;71.70;100636.13;5052424;28;20252;-75
2022/05/14 01:11:16;;;;;;;7.43;6.80;;;;;;;13.06;71.17;100643.06;5052687;28;20212;-75
2022/05/14 01:13:43;;;;;;;7.60;7.13;;;;;;;13.10;71.18;100649.97;5052394;28;20229;-75
2022/05/14 01:16:09;;;;;;;7.33;6.73;;;;;;;13.08;71.22;100644.78;5051980;28;20224;-75
2022/05/14 01:18:38;;;;;;;7.77;7.17;;;;;;;13.09;71.22;100645.63;5052471;28;20278;-75
2022/05/14 01:21:07;;;;;;;7.60;7.07;;;;;;;13.11;71.11;100654.31;5052460;28;20255;-75
2022/05/14 01:26:31;;;;;;;7.63;7.13;;;;;;;13.07;71.77;100643.03;5051417;28;20734;-75
2022/05/14 01:28:59;;;;;;;8.30;7.60;;;;;;;13.14;71.18;100646.38;5052058;28;20190;-75
2022/05/14 01:31:27;;;;;;;7.73;7.13;;;;;;;13.07;70.79;100661.38;5051860;28;20548;-75
2022/05/14 01:33:54;;;;;;;7.70;7.20;;;;;;;13.09;71.04;100650.88;5051996;28;20210;-75
2022/05/14 01:36:21;;;;;;;7.70;7.00;;;;;;;13.04;70.10;100632.66;5052134;28;20255;-75
2022/05/14 01:38:48;;;;;;;8.17;6.80;;;;;;;13.02;71.65;100639.69;5051567;28;20232;-75
2022/05/14 01:41:14;;;;;;;8.00;7.27;;;;;;;13.04;71.59;100637.91;5051936;28;20298;-75
2022/05/14 01:43:42;;;;;;;8.20;7.50;;;;;;;13.08;71.86;100634.28;5051771;28;20237;-75
2022/05/14 01:46:09;;;;;;;7.67;7.13;;;;;;;13.10;71.50;100629.00;5051847;28;20202;-75
2022/05/14 01:48:35;;;;;;;6.87;6.37;;;;;;;13.08;71.96;100628.16;5051716;28;20685;-75
2022/05/14 01:51:02;;;;;;;8.87;7.70;;;;;;;13.06;71.73;100620.38;5051877;28;20235;-75
2022/05/14 01:53:28;;;;;;;7.43;6.83;;;;;;;13.06;71.99;100614.25;5051165;28;20225;-74
2022/05/14 01:55:55;;;;;;;7.80;7.17;;;;;;;13.04;72.23;100613.44;5051843;28;20279;-74
2022/05/14 01:58:40;;;;;;;8.43;7.63;;;;;;;13.05;71.99;100609.91;5051389;28;20658;-74
2022/05/14 02:01:19;;;;;;;7.73;7.10;;;;;;;12.98;72.52;100601.34;5051989;28;20196;-75
2022/05/14 02:03:48;;;;;;;7.77;6.87;;;;;;;12.86;71.18;100618.28;5054926;28;20212;-74
2022/05/14 02:06:15;;;;;;;7.37;6.73;;;;;;;12.94;71.81;100619.81;5058559;28;20377;-74
2022/05/14 02:08:42;;;;;;;7.17;6.67;;;;;;;12.93;71.52;100623.34;5058334;28;20228;-75
2022/05/14 02:11:09;;;;;;;7.30;6.60;;;;;;;13.00;70.64;100638.00;5058095;28;20205;-75
2022/05/14 02:13:36;;;;;;;7.20;6.50;;;;;;;13.01;71.59;100622.25;5057998;28;20287;-75
2022/05/14 02:16:03;;;;;;;6.07;5.53;;;;;;;12.96;72.35;100611.00;5058210;28;20217;-75
2022/05/14 02:18:31;;;;;;;6.50;5.90;;;;;;;12.94;70.95;100628.53;5058108;28;20255;-74
2022/05/14 02:20:57;;;;;;;7.10;6.33;;;;;;;12.92;71.65;100632.94;5058198;28;20259;-75
2022/05/14 02:23:24;;;;;;;6.57;6.00;;;;;;;12.86;72.55;100599.06;5057909;28;20717;-74
2022/05/14 02:25:51;;;;;;;6.77;6.37;;;;;;;12.89;72.29;100588.50;5058119;28;20265;-75
2022/05/14 02:28:18;;;;;;;7.70;7.00;;;;;;;12.91;71.17;100620.75;5058372;28;20205;-75
2022/05/14 02:30:45;;;;;;;7.97;7.17;;;;;;;13.00;70.92;100646.75;5057933;28;20262;-75
2022/05/14 02:33:12;;;;;;;7.37;6.77;;;;;;;13.05;71.27;100652.72;5058154;28;20229;-75
2022/05/14 02:35:40;;;;;;;6.90;6.40;;;;;;;13.07;71.62;100634.31;5058228;28;20229;-75
2022/05/14 02:38:07;;;;;;;6.87;6.20;;;;;;;13.08;71.55;100615.06;5058101;28;20275;-74
2022/05/14 02:40:33;;;;;;;6.53;5.93;;;;;;;13.09;71.27;100622.03;5057687;28;20259;-75
2022/05/14 02:43:00;;;;;;;6.23;5.73;;;;;;;13.13;71.85;100612.34;5058346;28;20287;-75
2022/05/14 02:45:26;;;;;;;7.23;5.90;;;;;;;13.07;72.04;100624.69;5057918;28;20222;-75
2022/05/14 02:47:53;;;;;;;6.93;6.27;;;;;;;13.07;71.10;100629.94;5058195;28;20217;-74
2022/05/14 02:50:20;;;;;;;7.67;6.07;;;;;;;13.07;71.83;100629.94;5057568;28;20247;-75
2022/05/14 02:52:48;;;;;;;6.83;5.97;;;;;;;13.02;71.24;100641.44;5057995;28;20655;-75
2022/05/14 02:55:15;;;;;;;6.43;5.83;;;;;;;13.04;72.20;100631.78;5057615;28;20232;-75
2022/05/14 02:57:42;;;;;;;6.73;6.20;;;;;;;12.98;71.58;100639.78;5057781;28;20280;-75
2022/05/14 03:00:11;;;;;;;6.90;6.40;;;;;;;13.00;72.09;100614.41;5057835;28;20209;-75
2022/05/14 03:02:38;;;;;;;6.40;5.90;;;;;;;13.00;73.26;100596.06;5057593;28;20217;-75
2022/05/14 03:05:06;;;;;;;7.40;6.90;;;;;;;13.00;72.59;100609.16;5057833;28;20821;-75
2022/05/14 03:07:33;;;;;;;7.83;7.13;;;;;;;12.96;72.82;100602.28;5057751;28;20255;-75
2022/05/14 03:10:01;;;;;;;7.23;6.53;;;;;;;12.97;73.17;100593.53;5057721;28;20247;-75
2022/05/14 03:12:27;;;;;;;7.93;7.33;;;;;;;12.97;73.20;100594.41;5057462;28;20872;-75
2022/05/14 03:14:53;;;;;;;7.90;7.40;;;;;;;12.97;73.25;100590.94;5055429;28;20229;-75
2022/05/14 03:17:21;;;;;;;7.17;6.67;;;;;;;12.94;73.64;100585.75;5054456;28;20205;-74
2022/05/14 03:19:49;;;;;;;8.20;7.43;;;;;;;12.94;72.70;100589.22;5054644;28;20296;-74
2022/05/14 03:22:16;;;;;;;9.27;8.47;;;;;;;12.95;72.47;100601.44;5054217;28;20825;-75
2022/05/14 03:24:43;;;;;;;9.43;8.40;;;;;;;12.96;71.37;100636.34;5054546;28;20229;-75
2022/05/14 03:27:13;;;;;;;8.33;7.60;;;;;;;12.94;71.11;100656.50;5054297;28;20575;-74
2022/05/14 03:29:41;;;;;;;9.20;8.40;;;;;;;12.96;70.61;100666.03;5054427;28;20205;-75
2022/05/14 03:32:08;;;;;;;9.10;8.23;;;;;;;12.94;70.78;100673.06;5054475;28;20226;-75
2022/05/14 03:34:36;;;;;;;8.97;8.10;;;;;;;12.93;70.05;100666.13;5054298;28;20331;-75
2022/05/14 03:37:02;;;;;;;8.97;6.93;;;;;;;12.91;70.06;100684.50;5054075;28;20726;-75
2022/05/14 03:39:29;;;;;;;8.03;7.10;;;;;;;12.88;69.62;100687.22;5053850;28;20216;-75
2022/05/14 03:41:56;;;;;;;7.30;6.70;;;;;;;12.91;68.91;100700.22;5053872;28;20241;-75
2022/05/14 03:44:23;;;;;;;7.77;6.97;;;;;;;12.82;68.66;100716.16;5054271;28;20266;-75
2022/05/14 03:46:50;;;;;;;6.27;5.63;;;;;;;12.74;68.63;100719.84;5054009;28;20204;-75
2022/05/14 03:49:16;;;;;;;6.77;6.07;;;;;;;12.79;69.02;100718.84;5053583;28;20206;-75
2022/05/14 03:51:43;;;;;;;7.20;5.77;;;;;;;12.83;68.79;100723.13;5054118;28;20328;-75
2022/05/14 03:54:09;;;;;;;7.20;6.53;;;;;;;12.77;68.62;100725.91;5053583;28;20305;-75
2022/05/14 03:56:39;;;;;;;7.17;6.53;;;;;;;12.78;69.12;100730.22;5053907;28;20232;-75
2022/05/14 03:59:06;;;;;;;6.47;5.87;;;;;;;12.74;68.93;100728.56;5053524;28;20216;-75
2022/05/14 04:01:34;;;;;;;7.93;5.70;;;;;;;12.76;69.10;100733.78;5053856;28;20252;-75
2022/05/14 04:04:01;;;;;;;6.30;5.70;;;;;;;12.73;69.02;100739.09;5053777;28;20270;-75
2022/05/14 04:06:28;;;;;;;5.80;5.20;;;;;;;12.77;68.72;100741.59;5053615;28;20201;-75
2022/05/14 04:08:54;;;;;;;5.97;5.47;;;;;;;12.81;68.65;100747.66;5053367;28;20263;-75
2022/05/14 04:11:20;;;;;;;8.13;7.03;;;;;;;12.83;68.29;100744.09;5053506;28;20752;-75
2022/05/14 04:13:47;;;;;;;6.93;6.07;;;;;;;12.81;68.70;100731.94;5053714;28;20247;-75
2022/05/14 04:16:13;;;;;;;7.40;6.70;;;;;;;12.83;68.39;100732.75;5053373;28;20748;-75
2022/05/14 04:18:41;;;;;;;6.33;5.93;;;;;;;12.76;69.23;100720.69;5053078;28;20221;-75
2022/05/14 04:21:08;;;;;;;6.93;6.33;;;;;;;12.77;69.17;100712.78;5053410;28;20237;-74
2022/05/14 04:23:35;;;;;;;8.17;7.43;;;;;;;12.76;69.49;100694.50;5053430;28;20286;-75
2022/05/14 04:26:01;;;;;;;7.80;7.20;;;;;;;12.71;70.12;100699.84;5053042;28;20202;-75
2022/05/14 04:28:28;;;;;;;7.80;7.10;;;;;;;12.77;70.13;100697.06;5053151;28;20209;-75
2022/05/14 04:30:55;;;;;;;7.37;6.77;;;;;;;12.82;69.90;100699.56;5052858;28;20206;-75
2022/05/14 04:33:22;;;;;;;8.43;7.27;;;;;;;12.80;70.02;100702.22;5053076;28;20229;-75
2022/05/14 04:35:50;;;;;;;8.00;7.30;;;;;;;12.87;70.34;100698.56;5053209;28;20239;-74
2022/05/14 04:38:17;;;;;;;7.60;7.00;;;;;;;12.96;69.80;100707.94;5052811;28;20667;-75
2022/05/14 04:40:44;;;;;;;7.90;7.07;;;;;;;13.02;69.60;100712.19;5052555;28;20225;-75
2022/05/14 04:43:11;;;;;;;7.70;6.97;;;;;;;12.99;69.76;100715.75;5053003;28;20276;-75
2022/05/14 04:45:39;;;;;;;7.27;6.60;;;;;;;13.02;69.81;100723.56;5052618;28;20194;-75
2022/05/14 04:48:06;;;;;;;8.33;7.03;;;;;;;13.02;69.16;100727.91;5052864;28;20210;-75
2022/05/14 04:50:33;;;;;;;7.13;6.37;;;;;;;13.02;69.45;100733.16;5052796;28;20205;-75
2022/05/14 04:53:00;;;;;;;7.10;6.60;;;;;;;12.74;69.81;100744.28;5052973;28;20229;-74
2022/05/14 04:55:27;;;;;;;7.93;7.20;;;;;;;12.80;70.58;100719.72;5052491;28;20314;-74
2022/05/14 04:57:54;;;;;;;7.27;6.53;;;;;;;12.71;70.41;100726.03;5052644;28;20214;-74
2022/05/14 05:00:20;;;;;;;7.33;6.73;;;;;;;12.83;70.42;100717.88;5052195;28;20259;-74
2022/05/14 05:05:31;;;;;;;7.57;6.87;;;;;;;12.69;71.07;100733.06;5052542;28;20574;-74
2022/05/14 05:07:58;;;;;;;8.10;7.50;;;;;;;12.75;70.99;100711.97;5052430;28;20213;-74
2022/05/14 05:10:27;;;;;;;7.27;6.57;;;;;;;12.78;71.62;100697.94;5052063;28;20211;-74
2022/05/14 05:12:53;;;;;;;8.77;7.87;;;;;;;12.79;71.91;100689.19;5052477;28;20286;-75
2022/05/14 05:15:20;;;;;;;9.67;6.40;;;;;;;12.89;71.58;100674.97;5052353;28;20206;-75
2022/05/14 05:17:46;;;;;;;8.33;6.93;;;;;;;12.97;71.31;100699.22;5032376;28;20256;-74
2022/05/14 05:20:13;;;;;;;14.53;7.80;;;;;;;13.07;70.96;100715.56;5032557;28;20337;-75
2022/05/14 05:22:40;;;;;;;6.87;6.33;;;;;;;13.18;70.55;100724.03;5032110;28;20260;-74
2022/05/14 05:25:08;;;;;;;8.60;7.80;;;;;;;12.89;71.97;100703.78;5032574;28;20260;-75
2022/05/14 05:27:36;;;;;;;8.03;7.43;;;;;;;12.89;72.83;100674.97;5032555;28;20207;-74
2022/05/14 05:30:03;;;;;;;8.03;7.13;;;;;;;13.05;72.03;100685.91;5032370;28;20210;-75
2022/05/14 05:32:30;;;;;;;8.83;7.47;;;;;;;13.05;72.19;100696.41;5032624;28;20233;-75
2022/05/14 05:34:57;;;;;;;7.80;7.10;;;;;;;13.10;71.72;100700.63;5032513;28;20247;-75
2022/05/14 05:37:24;;;;;;;7.97;7.17;;;;;;;13.18;71.88;100704.81;5031973;28;20856;-74
2022/05/14 05:39:50;;;;;;;7.67;6.93;;;;;;;13.24;71.49;100705.53;5031283;28;20209;-75
2022/05/14 05:42:17;;;;;;;8.70;6.80;;;;;;;13.31;72.06;100708.88;5031731;28;20237;-75
2022/05/14 05:44:45;;;;;;;11.17;7.50;;;;;;;13.42;71.00;100726.94;5044715;28;20235;-75
2022/05/14 05:47:11;;;;;;;7.97;7.17;;;;;;;13.47;70.54;100736.41;5051782;28;20205;-73
2022/05/14 05:49:39;;;;;;;6.70;6.10;;;;;;;13.55;70.78;100727.50;5051682;28;20202;-73
2022/05/14 05:52:06;;;;;;;7.47;6.77;;;;;;;13.65;70.78;100742.94;5051593;28;20659;-73
2022/05/14 05:57:17;;;;;;;7.10;6.40;;;;;;;13.64;70.05;100754.34;5051547;28;20312;-74
2022/05/14 05:59:45;;;;;;;7.03;6.20;;;;;;;13.69;69.85;100769.94;5051711;28;20209;-74
2022/05/14 06:02:11;;;;;;;9.20;7.17;;;;;;;13.69;70.34;100775.19;5051843;28;20230;-74
2022/05/14 06:04:38;;;;;;;7.80;6.50;;;;;;;13.73;69.81;100776.81;5051622;28;20209;-74
2022/05/14 06:07:04;;;;;;;7.07;5.73;;;;;;;13.46;70.06;100775.81;5051511;28;20659;-74
2022/05/14 06:09:32;;;;;;;6.27;5.63;;;;;;;13.55;70.75;100751.94;5051674;28;20229;-73
2022/05/14 06:11:59;;;;;;;6.50;5.33;;;;;;;13.63;70.52;100746.50;5051637;28;20271;-73
2022/05/14 06:14:26;;;;;;;6.63;4.83;;;;;;;13.70;68.95;100784.81;5051154;28;20258;-72
2022/05/14 06:16:54;;;;;;;6.00;5.40;;;;;;;13.73;69.46;100799.59;5051546;28;20224;-73
2022/05/14 06:19:21;;;;;;;6.53;5.20;;;;;;;13.68;68.72;100813.69;5051385;28;20209;-74
2022/05/14 06:21:47;;;;;;;6.67;5.27;;;;;;;13.61;68.76;100819.97;5051385;28;20279;-73
2022/05/14 06:24:14;;;;;;;7.57;5.10;;;;;;;13.59;69.44;100802.56;5051877;28;20210;-73
2022/05/14 06:26:40;;;;;;;6.70;6.10;;;;;;;13.58;68.90;100806.09;5051491;28;20208;-73
2022/05/14 06:29:07;;;;;;;7.30;4.90;;;;;;;13.57;69.48;100802.59;5050767;28;20255;-73
2022/05/14 06:31:34;;;;;;;6.63;5.37;;;;;;;13.56;69.56;100792.13;5050920;28;20577;-73
2022/05/14 06:34:02;;;;;;;8.20;5.47;;;;;;;13.66;69.73;100799.75;5048338;28;20202;-72
2022/05/14 06:36:28;;;;;;;6.40;4.93;;;;;;;13.72;69.09;100811.00;5051150;28;20271;-74
2022/05/14 06:38:55;;;;;;;8.40;5.87;;;;;;;13.75;69.41;100813.53;5049998;28;20215;-74
2022/05/14 06:41:22;;;;;;;8.30;6.07;;;;;;;13.68;69.54;100820.72;5050739;28;20692;-73
2022/05/14 06:43:48;;;;;;;6.33;5.73;;;;;;;13.85;69.19;100823.72;5050968;28;20714;-75
2022/05/14 06:46:15;;;;;;;6.50;5.90;;;;;;;13.90;68.78;100821.84;5050450;28;20212;-75
2022/05/14 06:48:41;;;;;;;6.43;5.80;;;;;;;13.93;68.63;100831.41;5050577;28;20275;-75
2022/05/14 06:51:15;;;;;;;8.30;5.70;;;;;;;13.93;68.74;100833.16;5054417;28;20251;-75
2022/05/14 06:53:42;;;;;;;10.77;5.83;;;;;;;13.84;68.74;100834.28;5052236;28;20768;-76
2022/05/14 06:56:12;;;;;;;6.53;5.93;;;;;;;13.98;69.50;100831.31;5054438;28;20690;-76
2022/05/14 06:58:41;;;;;;;8.60;7.50;;;;;;;14.07;69.95;100817.91;5054503;28;20224;-76
2022/05/14 07:01:08;;;;;;;6.40;5.77;;;;;;;13.90;69.14;100836.75;5054372;28;20207;-77
2022/05/14 07:06:39;;;;;;;5.63;5.13;;;;;;;14.09;68.96;100816.09;5052342;28;20192;-75
2022/05/14 07:09:06;;;;;;;6.70;5.43;;;;;;;14.22;69.03;100833.25;5052612;28;20215;-75
2022/05/14 07:11:34;;;;;;;11.53;5.93;;;;;;;14.36;69.25;100832.00;5054304;28;20617;-75
2022/05/14 07:14:00;;;;;;;6.93;5.90;;;;;;;14.46;69.40;100831.69;5054338;28;20601;-75
2022/05/14 07:16:27;;;;;;;8.57;6.33;;;;;;;14.47;68.36;100859.69;5054011;28;20218;-76
2022/05/14 07:18:53;;;;;;;9.10;6.13;;;;;;;14.60;69.17;100836.56;5054287;28;20198;-75
2022/05/14 07:21:19;;;;;;;7.03;5.43;;;;;;;14.58;68.42;100864.66;5054309;28;20251;-75
2022/05/14 07:23:47;;;;;;;7.47;5.60;;;;;;;14.63;68.33;100875.06;5061535;28;20259;-75
2022/05/14 07:26:14;;;;;;;6.57;5.73;;;;;;;14.75;67.89;100872.06;5052867;28;20202;-76
2022/05/14 07:28:40;;;;;;;6.10;5.30;;;;;;;14.76;67.99;100875.56;5053560;28;20198;-77
2022/05/14 07:31:07;;;;;;;6.90;6.10;;;;;;;14.81;68.33;100860.53;5053445;28;20201;-75
2022/05/14 07:33:34;;;;;;;7.27;5.63;;;;;;;14.83;67.71;100872.69;5054581;28;20226;-75
2022/05/14 07:36:05;;;;;;;10.57;6.03;;;;;;;14.98;67.68;100886.28;5054102;28;20271;-75
2022/05/14 07:38:34;;;;;;;6.57;5.47;;;;;;;15.09;67.81;100881.56;5053663;28;20739;-75
2022/05/14 07:41:03;;;;;;;8.30;5.87;;;;;;;15.09;67.09;100903.47;5053722;28;20216;-75
2022/05/14 07:43:34;;;;;;;7.07;5.70;;;;;;;14.91;67.96;100892.66;5054089;28;20229;-75
2022/05/14 07:46:05;;;;;;;8.20;6.67;;;;;;;15.05;67.36;100903.59;5054294;28;20198;-75
2022/05/14 07:48:36;;;;;;;6.83;6.13;;;;;;;15.01;67.70;100910.72;5054152;28;20206;-75
2022/05/14 07:51:05;;;;;;;7.30;5.97;;;;;;;15.04;67.56;100897.50;5053432;28;20199;-74
2022/05/14 07:53:32;;;;;;;6.70;5.63;;;;;;;15.31;68.47;100873.88;5053653;28;20226;-76
2022/05/14 07:55:58;;;;;;;7.13;6.27;;;;;;;15.26;66.84;100904.69;5054006;28;20216;-75
2022/05/14 07:58:27;;;;;;;7.00;6.30;;;;;;;15.32;68.91;100861.56;5053998;28;20210;-75
2022/05/14 08:00:55;;;;;;;9.33;6.10;;;;;;;15.43;67.14;100878.72;5052988;28;20252;-76
2022/05/14 08:03:23;;;;;;;7.57;5.90;;;;;;;15.26;66.48;100923.13;5053445;28;20262;-76
2022/05/14 08:05:49;;;;;;;7.00;6.30;;;;;;;15.46;66.63;100922.50;5053938;28;20321;-76
2022/05/14 08:08:16;;;;;;;8.13;6.23;;;;;;;15.23;66.91;100939.00;5053750;28;20202;-77
2022/05/14 08:10:43;;;;;;;12.00;6.23;;;;;;;15.21;67.67;100898.75;5053460;28;20236;-76
2022/05/14 08:13:14;;;;;;;7.13;5.67;;;;;;;15.24;67.18;100898.63;5052973;28;20245;-76
2022/05/14 08:15:43;;;;;;;7.73;7.07;;;;;;;15.30;67.65;100903.69;5053710;28;20313;-76
2022/05/14 08:18:10;;;;;;;7.77;5.73;;;;;;;15.42;67.23;100889.31;5052952;28;20236;-76
2022/05/14 08:20:39;;;;;;;8.67;5.77;;;;;;;15.33;66.84;100919.41;5053580;28;20201;-76
2022/05/14 08:26:03;;;;;;;7.67;5.47;;;;;;;15.56;67.31;100891.50;5017395;28;20201;-75
2022/05/14 08:28:30;;;;;;;7.07;5.33;;;;;;;15.53;66.80;100902.97;5053403;28;20210;-76
2022/05/14 08:31:00;;;;;;;8.70;6.13;;;;;;;15.66;66.75;100912.22;5052315;28;20232;-76
2022/05/14 08:33:27;;;;;;;8.20;5.90;;;;;;;15.59;66.63;100922.97;5054750;28;20231;-76
2022/05/14 08:35:54;;;;;;;9.30;5.77;;;;;;;15.49;67.40;100896.09;5035823;28;20210;-76
2022/05/14 08:38:22;;;;;;;8.77;6.10;;;;;;;15.48;66.53;100911.03;5072784;28;20232;-78
2022/05/14 08:40:55;;;;;;;9.00;6.07;;;;;;;15.52;67.37;100905.66;5070137;28;20644;-76
2022/05/14 08:43:27;;;;;;;8.47;5.83;;;;;;;15.60;66.46;100906.25;5052985;28;20321;-76
2022/05/14 08:45:53;;;;;;;8.27;5.23;;;;;;;15.85;66.89;100907.22;5052295;28;20550;-75
2022/05/14 08:48:26;;;;;;;8.50;5.33;;;;;;;16.17;66.48;100915.78;5052847;28;20200;-76
2022/05/14 08:50:58;;;;;;;9.83;6.37;;;;;;;16.42;65.00;100941.31;5052933;28;20191;-76
2022/05/14 08:53:27;;;;;;;8.10;5.17;;;;;;;16.49;64.65;100990.25;5053468;28;20322;-76
2022/05/14 08:56:08;;;;;;;5.93;5.13;;;;;;;16.60;64.14;100995.13;5052765;28;20207;-77
2022/05/14 08:58:43;;;;;;;7.10;5.97;;;;;;;16.46;63.48;101009.66;5052868;28;20223;-76
2022/05/14 09:01:13;;;;;;;11.50;6.03;;;;;;;16.30;63.94;101019.00;5052535;28;20251;-76
2022/05/14 09:03:44;;;;;;;8.50;4.77;;;;;;;16.44;63.60;101016.75;5052495;28;20803;-76
2022/05/14 09:06:11;;;;;;;10.40;5.80;;;;;;;16.75;63.78;101007.78;5052659;28;20201;-76
2022/05/14 09:08:38;;;;;;;6.97;5.03;;;;;;;16.80;63.95;101015.53;5052364;28;20778;-78
2022/05/14 09:11:11;;;;;;;12.00;5.90;;;;;;;16.76;63.47;101027.94;5052287;28;20668;-77
2022/05/14 09:13:43;;;;;;;7.47;4.80;;;;;;;16.73;62.40;101043.88;5051526;28;20289;-77
2022/05/14 09:16:23;;;;;;;7.47;5.13;;;;;;;16.81;62.97;101049.78;5052458;28;20206;-76
2022/05/14 09:18:53;;;;;;;7.10;5.03;;;;;;;16.59;62.79;101049.63;5044540;28;20198;-76
2022/05/14 09:21:22;;;;;;;5.83;5.23;;;;;;;16.73;63.74;101027.19;5052134;28;20212;-76
2022/05/14 09:23:55;;;;;;;7.17;5.07;;;;;;;17.01;62.60;101054.34;5052581;28;20207;-77
2022/05/14 09:26:27;;;;;;;5.23;4.67;;;;;;;16.83;62.43;101079.59;5052486;28;20195;-77
2022/05/14 09:28:56;;;;;;;9.00;5.67;;;;;;;16.65;61.69;101104.78;5051937;28;20199;-75
2022/05/14 09:31:25;;;;;;;8.27;4.60;;;;;;;16.78;62.65;101073.56;5052345;28;20218;-77
2022/05/14 09:34:06;;;;;;;9.80;4.97;;;;;;;16.99;63.19;101045.63;5052006;28;20215;-76
2022/05/14 09:36:36;;;;;;;9.87;4.17;;;;;;;17.19;62.51;101057.25;5052153;28;20769;-76
2022/05/14 09:39:07;;;;;;;6.67;4.47;;;;;;;17.23;60.48;101111.63;5051668;28;20695;-77
2022/05/14 09:41:41;;;;;;;9.17;4.60;;;;;;;17.47;61.63;101086.97;5051684;28;20240;-76
2022/05/14 09:44:14;;;;;;;8.00;4.07;;;;;;;17.71;60.40;101121.28;5052126;28;20726;-77
2022/05/14 09:46:40;;;;;;;9.57;4.10;;;;;;;17.84;59.09;101162.19;5054474;28;20973;-77
2022/05/14 09:49:10;;;;;;;6.90;4.10;;;;;;;17.69;58.29;101214.69;5054550;28;20203;-77
2022/05/14 09:51:51;;;;;;;7.33;4.17;;;;;;;17.24;60.06;101189.84;5071700;28;20679;-77
2022/05/14 09:54:22;;;;;;;8.53;4.73;;;;;;;17.50;59.61;101161.66;5072103;28;20191;-76
2022/05/14 09:57:17;;;;;;;6.27;4.20;;;;;;;17.29;58.58;101197.63;5071869;28;20602;-78
2022/05/14 10:00:02;;;;;;;10.37;4.50;;;;;;;17.37;58.83;101185.00;5071835;28;20199;-76
2022/05/14 10:02:57;;;;;;;5.37;4.10;;;;;;;17.57;59.31;101171.97;5071829;28;20235;-76
2022/05/14 10:05:39;;;;;;;6.13;3.87;;;;;;;17.90;60.50;101147.91;5067694;28;20257;-76
2022/05/14 10:08:15;;;;;;;5.27;3.60;;;;;;;17.92;56.84;101216.50;5071827;28;20192;-77
2022/05/14 10:10:53;;;;;;;9.43;4.07;;;;;;;17.88;56.99;101270.34;5056410;28;20258;-77
2022/05/14 10:13:25;;;;;;;6.77;4.37;;;;;;;17.89;56.68;101264.16;5051608;28;20227;-77
2022/05/14 10:16:03;;;;;;;7.67;4.47;;;;;;;18.21;58.53;101220.69;5051631;28;20225;-77
2022/05/14 10:18:45;;;;;;;8.57;4.43;;;;;;;18.42;57.05;101235.72;5051205;28;20675;-76
2022/05/14 10:21:20;;;;;;;9.43;4.00;;;;;;;18.49;56.19;101283.94;5051370;28;20202;-78
2022/05/14 10:26:56;;;;;;;7.07;4.63;;;;;;;18.40;57.16;101242.84;5056200;28;20213;-76
2022/05/14 10:29:37;;;;;;;11.07;4.30;;;;;;;18.49;56.54;101268.06;5055303;28;20675;-78
2022/05/14 10:32:06;;;;;;;7.33;4.27;;;;;;;18.73;57.03;101254.81;5055226;28;20224;-76
2022/05/14 10:34:44;;;;;;;9.73;4.80;;;;;;;18.70;57.02;101270.81;5055223;28;20214;-76
2022/05/14 10:37:22;;;;;;;4.70;3.77;;;;;;;18.58;56.31;101272.16;5061815;28;20223;-74
2022/05/14 10:39:56;;;;;;;7.03;4.30;;;;;;;18.38;55.89;101300.22;5054588;28;20214;-76
2022/05/14 10:42:34;;;;;;;15.60;4.57;;;;;;;18.20;56.60;101296.47;5056021;28;20305;-78
2022/05/14 10:45:07;;;;;;;8.80;5.03;;;;;;;18.18;56.76;101269.25;5055473;28;20264;-77
2022/05/14 10:47:34;;;;;;;6.67;4.17;;;;;;;18.29;56.17;101267.97;5055326;28;20203;-77
2022/05/14 10:50:05;;;;;;;8.07;4.47;;;;;;;17.95;56.22;101322.06;5054871;28;20216;-77
2022/05/14 10:52:33;;;;;;;10.30;3.90;;;;;;;17.80;57.00;101303.16;5054782;28;20228;-76
2022/05/14 10:54:59;;;;;;;8.60;4.30;;;;;;;17.82;57.20;101264.34;5054705;28;20212;-78
2022/05/14 10:57:42;;;;;;;8.60;4.07;;;;;;;18.19;55.51;101299.16;5054836;28;20701;-77
2022/05/14 11:00:18;;;;;;;5.17;3.27;;;;;;;18.56;54.89;101322.44;5054655;28;20196;-75
2022/05/14 11:02:54;;;;;;;5.90;4.03;;;;;;;18.41;52.82;101378.53;5053595;28;20225;-77
2022/05/14 11:05:28;;;;;;;6.10;3.97;;;;;;;18.36;53.40;101402.50;5055053;28;20221;-77
2022/05/14 11:08:08;;;;;;;7.57;3.80;;;;;;;18.26;54.87;101377.31;5061852;28;20220;-77
2022/05/14 11:10:35;;;;;;;6.20;3.53;;;;;;;18.26;55.83;101332.38;5063626;28;20200;-78
2022/05/14 11:13:10;;;;;;;7.43;3.93;;;;;;;18.06;54.24;101368.31;5054403;28;20914;-77
2022/05/14 11:15:37;;;;;;;6.23;3.67;;;;;;;18.02;54.16;101381.69;5060356;28;20576;-78
2022/05/14 11:18:08;;;;;;;8.77;3.83;;;;;;;18.19;53.09;101402.22;5064147;28;20242;-77
2022/05/14 11:20:35;;;;;;;6.30;4.03;;;;;;;18.53;51.87;101435.38;5054361;28;20262;-78
2022/05/14 11:23:09;;;;;;;8.43;4.03;;;;;;;18.83;50.84;101467.84;5054441;28;20274;-78
2022/05/14 11:25:36;;;;;;;8.13;3.57;;;;;;;18.88;50.12;101517.94;5054328;28;20281;-78
2022/05/14 11:28:08;;;;;;;6.33;3.33;;;;;;;19.28;48.48;101566.75;5054376;28;20614;-77
2022/05/14 11:30:38;;;;;;;7.93;3.00;;;;;;;19.90;47.45;101621.81;5054240;28;20192;-76
2022/05/14 11:33:17;;;;;;;7.10;3.30;;;;;;;20.43;44.70;101682.44;5054178;28;20232;-77
2022/05/14 11:35:47;;;;;;;6.87;3.20;;;;;;;20.41;45.49;101741.75;5053376;28;20213;-77
2022/05/14 11:38:30;;;;;;;6.27;3.30;;;;;;;19.61;45.85;101748.25;5053726;28;20296;-78
2022/05/14 11:40:58;;;;;;;3.77;2.73;;;;;;;19.94;47.48;101654.31;5050988;28;20262;-78
2022/05/14 11:43:28;;;;;;;4.93;2.63;;;;;;;20.68;43.94;101697.38;5053775;28;20223;-79
2022/05/14 11:46:12;;;;;;;8.23;3.47;;;;;;;21.15;42.92;101811.34;5053773;28;20248;-77
2022/05/14 11:48:45;;;;;;;4.40;2.90;;;;;;;21.60;43.67;101799.75;5052572;28;20540;-79
2022/05/14 11:51:17;;;;;;;5.33;3.30;;;;;;;21.61;43.17;101804.13;5053985;28;20194;-77
2022/05/14 11:53:50;;;;;;;7.70;3.50;;;;;;;21.23;44.43;101789.81;5052517;28;20229;-76